Time;durP1;ratioP1;P1;durP2;ratioP2;P2;SDS_P1;SDS_P2;PMS_P1;PMS_P2;Temp;Humidity;BMP_temperature;BMP_pressure;BME280_temperature;BME280_humidity;BME280_pressure;Samples;Min_cycle;Max_cycle;Signal;HPM_P1;HPM_P2
2023/01/28 00:01:52;;;;;;;17.52;6.25;;;;;;;;;;4857982;29;20290;-68
2023/01/28 00:04:18;;;;;;;16.23;6.07;;;;;;;;;;4837859;29;20594;-68
2023/01/28 00:06:44;;;;;;;19.55;6.53;;;;;;;;;;4856953;29;20024;-68
2023/01/28 00:09:10;;;;;;;18.75;7.75;;;;;;;;;;4858171;29;20029;-68
2023/01/28 00:11:36;;;;;;;21.27;7.43;;;;;;;;;;4851793;29;20071;-68
2023/01/28 00:14:06;;;;;;;22.58;8.85;;;;;;;;;;4852248;29;20819;-68
2023/01/28 00:16:32;;;;;;;24.88;12.07;;;;;;;;;;4841612;29;20463;-70
2023/01/28 00:18:58;;;;;;;22.55;10.75;;;;;;;;;;4851799;29;20345;-69
2023/01/28 00:21:25;;;;;;;30.08;13.60;;;;;;;;;;4854479;29;20040;-70
2023/01/28 00:23:55;;;;;;;25.08;13.45;;;;;;;;;;4845403;29;20037;-70
2023/01/28 00:26:21;;;;;;;20.70;8.30;;;;;;;;;;4857129;29;20523;-70
2023/01/28 00:28:47;;;;;;;;;;;;;;;;;;4855663;29;20068;-67
2023/01/28 00:31:18;;;;;;;18.80;6.05;;;;;;;;;;4852767;29;20024;-70
2023/01/28 00:33:45;;;;;;;16.98;5.13;;;;;;;;;;4851640;29;20383;-68
2023/01/28 00:36:12;;;;;;;15.48;5.13;;;;;;;;;;4858918;29;20063;-68
2023/01/28 00:38:38;;;;;;;15.85;5.38;;;;;;;;;;4855760;29;20434;-68
2023/01/28 00:41:23;;;;;;;15.73;5.18;;;;;;;;;;4857982;29;20035;-68
2023/01/28 00:43:50;;;;;;;17.58;4.97;;;;;;;;;;4855441;29;20346;-68
2023/01/28 00:46:16;;;;;;;;;;;;;;;;;;4853943;29;20037;-68
2023/01/28 00:48:42;;;;;;;16.05;5.97;;;;;;;;;;4851964;29;20128;-69
2023/01/28 00:51:08;;;;;;;;;;;;;;;;;;4858824;29;20032;-69
2023/01/28 00:53:36;;;;;;;16.10;5.75;;;;;;;;;;4854765;29;19920;-68
2023/01/28 00:56:02;;;;;;;17.67;5.72;;;;;;;;;;4855502;29;20134;-68
2023/01/28 00:58:28;;;;;;;17.50;5.85;;;;;;;;;;4835754;29;20037;-68
2023/01/28 01:00:55;;;;;;;19.33;5.57;;;;;;;;;;4858783;29;20592;-68
2023/01/28 01:03:21;;;;;;;16.48;5.07;;;;;;;;;;4857288;29;20835;-68
2023/01/28 01:05:47;;;;;;;18.70;5.20;;;;;;;;;;4847826;29;20572;-68
2023/01/28 01:08:13;;;;;;;15.57;4.65;;;;;;;;;;4844610;29;20538;-68
2023/01/28 01:10:40;;;;;;;16.08;4.88;;;;;;;;;;4857313;29;20031;-68
2023/01/28 01:13:06;;;;;;;17.20;4.68;;;;;;;;;;4858494;29;20662;-69
2023/01/28 01:15:33;;;;;;;16.25;5.00;;;;;;;;;;4854040;29;20037;-68
2023/01/28 01:17:59;;;;;;;;;;;;;;;;;;4858624;29;20116;-68
2023/01/28 01:20:32;;;;;;;15.75;4.90;;;;;;;;;;4854663;29;19922;-68
2023/01/28 01:22:58;;;;;;;14.25;4.55;;;;;;;;;;4846584;29;20033;-69
2023/01/28 01:25:24;;;;;;;13.32;4.40;;;;;;;;;;4858145;29;20056;-70
2023/01/28 01:27:50;;;;;;;12.82;4.30;;;;;;;;;;4860987;29;20037;-69
2023/01/28 01:30:17;;;;;;;14.70;4.55;;;;;;;;;;4858531;29;20361;-70
2023/01/28 01:32:43;;;;;;;14.77;4.97;;;;;;;;;;4855151;29;20223;-69
2023/01/28 01:35:09;;;;;;;12.93;4.63;;;;;;;;;;4858013;29;20377;-69
2023/01/28 01:37:36;;;;;;;16.77;5.20;;;;;;;;;;4855337;29;20158;-68
2023/01/28 01:40:03;;;;;;;16.92;4.80;;;;;;;;;;4859687;29;20028;-69
2023/01/28 01:42:30;;;;;;;16.88;5.30;;;;;;;;;;4855518;29;20051;-69
2023/01/28 01:44:56;;;;;;;;;;;;;;;;;;4858564;29;20145;-69
2023/01/28 01:47:42;;;;;;;16.58;4.93;;;;;;;;;;4855809;29;19922;-69
2023/01/28 01:50:29;;;;;;;17.95;4.70;;;;;;;;;;4831615;29;20049;-69
2023/01/28 01:52:56;;;;;;;15.60;4.57;;;;;;;;;;4843727;29;20116;-68
2023/01/28 01:55:24;;;;;;;12.43;4.28;;;;;;;;;;4853974;29;20456;-69
2023/01/28 01:57:51;;;;;;;12.95;4.40;;;;;;;;;;4846775;29;20037;-68
2023/01/28 02:00:18;;;;;;;11.90;4.13;;;;;;;;;;4859874;29;20049;-69
2023/01/28 02:02:46;;;;;;;14.13;3.80;;;;;;;;;;4855095;29;20032;-68
2023/01/28 02:05:14;;;;;;;14.88;3.85;;;;;;;;;;4855519;29;20639;-69
2023/01/28 02:07:41;;;;;;;19.40;4.95;;;;;;;;;;4854165;29;20060;-69
2023/01/28 02:10:07;;;;;;;15.15;4.60;;;;;;;;;;4859451;29;20374;-69
2023/01/28 02:12:36;;;;;;;;;;;;;;;;;;4842602;29;20032;-69
2023/01/28 02:15:04;;;;;;;14.80;4.60;;;;;;;;;;4854348;29;19959;-68
2023/01/28 02:17:31;;;;;;;14.30;4.53;;;;;;;;;;4850353;29;20037;-68
2023/01/28 02:20:01;;;;;;;23.20;4.88;;;;;;;;;;4854231;29;20033;-68
2023/01/28 02:22:46;;;;;;;13.57;4.45;;;;;;;;;;4857265;29;20064;-68
2023/01/28 02:25:24;;;;;;;19.60;4.80;;;;;;;;;;4858787;29;20041;-68
2023/01/28 02:28:09;;;;;;;16.08;4.45;;;;;;;;;;4843586;29;20507;-67
2023/01/28 02:30:40;;;;;;;14.50;4.53;;;;;;;;;;4855796;29;20033;-67
2023/01/28 02:33:10;;;;;;;14.48;4.25;;;;;;;;;;4858924;29;20046;-69
2023/01/28 02:35:39;;;;;;;15.77;4.68;;;;;;;;;;4858451;29;20114;-69
2023/01/28 02:38:10;;;;;;;17.77;4.45;;;;;;;;;;4861085;29;20028;-69
2023/01/28 02:43:44;;;;;;;15.40;4.25;;;;;;;;;;4819138;29;20045;-68
2023/01/28 02:49:04;;;;;;;13.60;4.07;;;;;;;;;;4824301;29;20258;-68
2023/01/28 02:51:49;;;;;;;12.63;3.60;;;;;;;;;;4822004;29;20703;-68
2023/01/28 02:54:35;;;;;;;9.93;3.22;;;;;;;;;;4836753;29;20058;-68
2023/01/28 02:57:13;;;;;;;10.65;3.15;;;;;;;;;;4821318;29;20283;-68
2023/01/28 02:59:45;;;;;;;12.10;3.20;;;;;;;;;;4819659;29;20508;-68
2023/01/28 03:02:19;;;;;;;10.80;3.40;;;;;;;;;;4823642;29;20049;-68
2023/01/28 03:05:04;;;;;;;11.30;2.80;;;;;;;;;;4805546;29;20537;-67
2023/01/28 03:07:31;;;;;;;7.65;2.40;;;;;;;;;;4820461;29;20502;-68
2023/01/28 03:09:58;;;;;;;8.55;2.30;;;;;;;;;;4822402;29;20112;-68
2023/01/28 03:37:52;;;;;;;8.35;2.35;;;;;;;;;;4859407;29;20052;-68
2023/01/28 03:40:18;;;;;;;10.68;2.22;;;;;;;;;;4855479;29;20477;-68
2023/01/28 03:42:44;;;;;;;8.65;2.42;;;;;;;;;;4857340;29;20511;-70
2023/01/28 03:45:12;;;;;;;8.88;2.70;;;;;;;;;;4854895;29;20466;-69
2023/01/28 03:47:39;;;;;;;9.70;2.67;;;;;;;;;;4857100;29;21549;-69
2023/01/28 03:50:06;;;;;;;;;;;;;;;;;;4846356;29;20794;-69
2023/01/28 03:52:32;;;;;;;9.57;2.70;;;;;;;;;;4839301;29;19920;-68
2023/01/28 03:54:59;;;;;;;10.23;2.67;;;;;;;;;;4856083;29;20031;-68
2023/01/28 03:57:26;;;;;;;10.40;2.92;;;;;;;;;;4855745;29;20397;-69
2023/01/28 03:59:53;;;;;;;10.45;3.15;;;;;;;;;;4857756;29;20334;-69
2023/01/28 04:02:19;;;;;;;;;;;;;;;;;;4860391;29;20040;-69
2023/01/28 04:04:45;;;;;;;9.45;2.55;;;;;;;;;;4854528;29;19927;-69
2023/01/28 04:07:14;;;;;;;11.02;2.75;;;;;;;;;;4857488;29;20040;-71
2023/01/28 04:09:40;;;;;;;8.60;2.53;;;;;;;;;;4853362;29;20033;-68
2023/01/28 04:12:06;;;;;;;;;;;;;;;;;;4857123;29;20032;-68
2023/01/28 04:14:33;;;;;;;8.40;2.20;;;;;;;;;;4841072;29;20492;-69
2023/01/28 04:16:59;;;;;;;;;;;;;;;;;;4844268;29;20796;-69
2023/01/28 04:19:25;;;;;;;10.32;2.75;;;;;;;;;;4836505;29;19927;-68
2023/01/28 04:21:55;;;;;;;9.57;2.58;;;;;;;;;;4852875;29;20039;-68
2023/01/28 04:24:22;;;;;;;9.85;2.53;;;;;;;;;;4857364;29;20024;-68
2023/01/28 04:26:49;;;;;;;8.20;2.40;;;;;;;;;;4859739;29;20100;-68
2023/01/28 04:29:15;;;;;;;;;;;;;;;;;;4862346;29;20024;-68
2023/01/28 04:31:41;;;;;;;9.15;2.42;;;;;;;;;;4855644;29;19962;-68
2023/01/28 04:34:08;;;;;;;10.85;2.70;;;;;;;;;;4860077;29;20143;-68
2023/01/28 04:36:34;;;;;;;9.23;2.80;;;;;;;;;;4852864;29;20025;-68
2023/01/28 04:39:00;;;;;;;9.57;2.78;;;;;;;;;;4854410;29;20045;-68
2023/01/28 04:41:26;;;;;;;10.35;2.85;;;;;;;;;;4854816;29;20910;-68
2023/01/28 04:43:52;;;;;;;11.40;2.72;;;;;;;;;;4847574;29;20032;-68
2023/01/28 04:46:18;;;;;;;9.80;2.60;;;;;;;;;;4855149;29;20699;-68
2023/01/28 04:48:45;;;;;;;10.90;2.90;;;;;;;;;;4853163;29;20040;-68
2023/01/28 04:51:11;;;;;;;9.93;3.15;;;;;;;;;;4854134;29;20043;-68
2023/01/28 04:53:37;;;;;;;8.80;2.58;;;;;;;;;;4838617;29;20041;-68
2023/01/28 04:56:03;;;;;;;9.75;2.80;;;;;;;;;;4851112;29;20762;-68
2023/01/28 04:58:30;;;;;;;9.60;2.78;;;;;;;;;;4857510;29;20040;-68
2023/01/28 05:00:57;;;;;;;10.50;2.75;;;;;;;;;;4858488;29;20673;-68
2023/01/28 05:03:23;;;;;;;10.45;2.72;;;;;;;;;;4853380;29;20529;-68
2023/01/28 05:05:49;;;;;;;10.93;3.05;;;;;;;;;;4857007;29;20296;-68
2023/01/28 05:08:15;;;;;;;8.40;2.40;;;;;;;;;;4852412;29;20460;-69
2023/01/28 05:10:41;;;;;;;9.38;2.65;;;;;;;;;;4853061;29;21404;-69
2023/01/28 05:13:08;;;;;;;9.15;2.85;;;;;;;;;;4859442;29;20128;-68
2023/01/28 05:15:34;;;;;;;10.57;3.15;;;;;;;;;;4855996;29;20087;-68
2023/01/28 05:18:00;;;;;;;11.25;3.45;;;;;;;;;;4854881;29;20539;-69
2023/01/28 05:20:26;;;;;;;10.75;3.63;;;;;;;;;;4840031;29;20917;-69
2023/01/28 05:22:53;;;;;;;9.93;3.80;;;;;;;;;;4853383;29;20199;-68
2023/01/28 05:25:19;;;;;;;9.75;3.45;;;;;;;;;;4854501;29;20045;-68
2023/01/28 05:27:50;;;;;;;9.10;3.25;;;;;;;;;;4851533;29;20120;-68
2023/01/28 05:30:16;;;;;;;9.10;3.15;;;;;;;;;;4858284;29;20292;-68
2023/01/28 05:32:42;;;;;;;;;;;;;;;;;;4853218;29;20342;-68
2023/01/28 05:35:09;;;;;;;9.77;2.38;;;;;;;;;;4860585;29;19945;-68
2023/01/28 05:37:35;;;;;;;10.15;2.33;;;;;;;;;;4851120;29;20037;-68
2023/01/28 05:40:01;;;;;;;9.30;2.50;;;;;;;;;;4854921;29;20021;-68
2023/01/28 05:42:27;;;;;;;8.57;2.35;;;;;;;;;;4853728;29;20048;-68
2023/01/28 05:44:53;;;;;;;9.82;2.50;;;;;;;;;;4856326;29;20231;-68
2023/01/28 05:47:19;;;;;;;11.77;3.33;;;;;;;;;;4841727;29;20061;-68
2023/01/28 05:49:46;;;;;;;11.45;2.88;;;;;;;;;;4837056;29;20335;-70
2023/01/28 05:52:12;;;;;;;12.10;3.20;;;;;;;;;;4859004;29;20127;-68
2023/01/28 05:54:38;;;;;;;11.85;3.20;;;;;;;;;;4842179;29;20029;-68
2023/01/28 05:57:04;;;;;;;9.95;3.10;;;;;;;;;;4856759;29;20052;-67
2023/01/28 05:59:30;;;;;;;12.88;2.92;;;;;;;;;;4858752;29;20041;-68
2023/01/28 06:01:57;;;;;;;12.40;3.30;;;;;;;;;;4844503;29;20036;-68
2023/01/28 06:04:23;;;;;;;12.73;3.28;;;;;;;;;;4857430;29;20092;-68
2023/01/28 06:06:49;;;;;;;12.70;3.08;;;;;;;;;;4859024;29;20048;-68
2023/01/28 06:09:15;;;;;;;9.98;3.28;;;;;;;;;;4855748;29;20052;-68
2023/01/28 06:11:43;;;;;;;10.52;3.05;;;;;;;;;;4855146;29;20071;-68
2023/01/28 06:14:09;;;;;;;11.88;2.92;;;;;;;;;;4858563;29;20791;-68
2023/01/28 06:16:35;;;;;;;12.02;2.83;;;;;;;;;;4854259;29;20039;-68
2023/01/28 06:19:01;;;;;;;12.27;3.20;;;;;;;;;;4856885;29;20040;-68
2023/01/28 06:21:27;;;;;;;10.10;2.88;;;;;;;;;;4854412;29;20292;-68
2023/01/28 06:23:54;;;;;;;11.30;2.90;;;;;;;;;;4856090;29;20036;-68
2023/01/28 06:26:20;;;;;;;11.63;2.90;;;;;;;;;;4855871;29;20032;-69
2023/01/28 06:28:46;;;;;;;11.38;2.92;;;;;;;;;;4852721;29;20289;-69
2023/01/28 06:31:12;;;;;;;13.30;3.08;;;;;;;;;;4860067;29;20042;-69
2023/01/28 06:33:38;;;;;;;9.88;2.42;;;;;;;;;;4851566;29;20083;-69
2023/01/28 06:36:05;;;;;;;8.52;2.08;;;;;;;;;;4855778;29;20032;-69
2023/01/28 06:38:32;;;;;;;7.75;2.03;;;;;;;;;;4854700;29;20551;-68
2023/01/28 06:40:58;;;;;;;8.80;2.00;;;;;;;;;;4855724;29;20064;-69
2023/01/28 06:43:26;;;;;;;8.88;2.10;;;;;;;;;;4847699;29;20044;-69
2023/01/28 06:45:53;;;;;;;6.55;1.63;;;;;;;;;;4856639;29;20305;-68
2023/01/28 06:48:20;;;;;;;6.72;1.60;;;;;;;;;;4845482;29;20045;-69
2023/01/28 06:50:47;;;;;;;6.50;1.70;;;;;;;;;;4852290;29;20085;-70
2023/01/28 06:53:13;;;;;;;6.32;1.60;;;;;;;;;;4857679;29;20048;-69
2023/01/28 06:55:39;;;;;;;6.57;1.70;;;;;;;;;;4836267;29;20028;-69
2023/01/28 06:58:05;;;;;;;6.30;1.58;;;;;;;;;;4856217;29;20483;-70
2023/01/28 07:00:31;;;;;;;6.47;1.63;;;;;;;;;;4851649;29;20064;-68
2023/01/28 07:02:57;;;;;;;8.75;2.00;;;;;;;;;;4854309;29;20041;-70
2023/01/28 07:05:24;;;;;;;8.75;1.88;;;;;;;;;;4853998;29;20462;-70
2023/01/28 07:07:50;;;;;;;6.43;1.70;;;;;;;;;;4844548;29;20040;-69
2023/01/28 07:10:16;;;;;;;8.18;2.00;;;;;;;;;;4858105;29;20040;-68
2023/01/28 07:12:43;;;;;;;7.47;2.00;;;;;;;;;;4839852;29;20484;-68
2023/01/28 07:15:13;;;;;;;9.15;1.60;;;;;;;;;;4855498;29;20028;-69
2023/01/28 07:17:42;;;;;;;5.15;1.52;;;;;;;;;;4853583;29;20795;-70
2023/01/28 07:20:10;;;;;;;6.78;1.63;;;;;;;;;;4844315;29;20486;-70
2023/01/28 07:22:38;;;;;;;6.50;1.60;;;;;;;;;;4848993;29;20040;-69
2023/01/28 07:25:04;;;;;;;5.05;1.48;;;;;;;;;;4853747;29;20032;-69
2023/01/28 07:27:30;;;;;;;;;;;;;;;;;;4842379;29;20128;-69
2023/01/28 07:29:56;;;;;;;6.93;2.00;;;;;;;;;;4856257;29;20698;-69
2023/01/28 07:32:25;;;;;;;6.07;2.00;;;;;;;;;;4857518;29;20044;-69
2023/01/28 07:34:51;;;;;;;6.57;2.00;;;;;;;;;;4842685;29;20068;-69
2023/01/28 07:37:17;;;;;;;6.40;1.90;;;;;;;;;;4859087;29;20487;-69
2023/01/28 07:39:44;;;;;;;7.18;1.90;;;;;;;;;;4838754;29;20029;-69
2023/01/28 07:42:10;;;;;;;5.97;1.73;;;;;;;;;;4855127;29;20278;-69
2023/01/28 07:44:37;;;;;;;7.07;1.73;;;;;;;;;;4840653;29;20124;-68
2023/01/28 07:47:04;;;;;;;4.65;1.30;;;;;;;;;;4857863;29;20027;-68
2023/01/28 07:49:30;;;;;;;;;;;;;;;;;;4837350;29;20040;-68
2023/01/28 07:51:59;;;;;;;5.78;1.90;;;;;;;;;;4859370;29;19965;-68
2023/01/28 07:54:25;;;;;;;6.10;1.83;;;;;;;;;;4853122;29;20036;-68
2023/01/28 07:56:51;;;;;;;3.58;1.30;;;;;;;;;;4851154;29;20415;-70
2023/01/28 07:59:18;;;;;;;7.00;1.90;;;;;;;;;;4852839;29;20111;-70
2023/01/28 08:01:44;;;;;;;5.65;2.00;;;;;;;;;;4850307;29;20480;-70
2023/01/28 08:04:10;;;;;;;6.40;2.47;;;;;;;;;;4854925;29;20485;-70
2023/01/28 08:06:36;;;;;;;6.57;2.30;;;;;;;;;;4853064;29;20518;-70
2023/01/28 08:09:07;;;;;;;9.48;3.35;;;;;;;;;;4856186;29;20103;-70
2023/01/28 08:11:34;;;;;;;9.13;3.35;;;;;;;;;;4853201;29;20061;-70
2023/01/28 08:14:00;;;;;;;11.63;5.68;;;;;;;;;;4855728;29;20575;-73
2023/01/28 08:16:28;;;;;;;9.35;4.13;;;;;;;;;;4839985;29;20446;-73
2023/01/28 08:18:54;;;;;;;9.05;3.97;;;;;;;;;;4858062;29;20051;-73
2023/01/28 08:21:20;;;;;;;10.18;4.38;;;;;;;;;;4858227;29;20108;-73
2023/01/28 08:23:46;;;;;;;11.38;4.82;;;;;;;;;;4853200;29;20068;-75
2023/01/28 08:26:12;;;;;;;10.80;5.13;;;;;;;;;;4859702;29;20032;-73
2023/01/28 08:28:39;;;;;;;9.15;4.45;;;;;;;;;;4852359;29;20333;-73
2023/01/28 08:31:05;;;;;;;13.52;8.25;;;;;;;;;;4842711;29;20135;-73
2023/01/28 08:33:31;;;;;;;12.43;7.43;;;;;;;;;;4847292;29;20032;-73
2023/01/28 08:35:57;;;;;;;10.65;5.82;;;;;;;;;;4859145;29;20396;-73
2023/01/28 08:38:24;;;;;;;12.10;5.85;;;;;;;;;;4853424;29;20098;-73
2023/01/28 08:40:52;;;;;;;10.13;4.07;;;;;;;;;;4843474;29;20025;-73
2023/01/28 08:43:19;;;;;;;9.10;3.28;;;;;;;;;;4853293;29;20424;-72
2023/01/28 08:45:45;;;;;;;10.45;3.47;;;;;;;;;;4850897;29;20051;-72
2023/01/28 08:48:14;;;;;;;11.13;4.05;;;;;;;;;;4852279;29;20213;-72
2023/01/28 08:50:40;;;;;;;10.38;4.25;;;;;;;;;;4851315;29;20059;-73
2023/01/28 08:53:09;;;;;;;20.98;11.55;;;;;;;;;;4850473;29;20084;-72
2023/01/28 08:55:35;;;;;;;18.88;10.10;;;;;;;;;;4841127;29;20500;-72
2023/01/28 08:58:03;;;;;;;17.52;7.63;;;;;;;;;;4849979;29;20501;-72
2023/01/28 09:00:29;;;;;;;20.85;10.27;;;;;;;;;;4848112;29;20118;-74
2023/01/28 09:02:55;;;;;;;20.13;11.98;;;;;;;;;;4842796;29;20024;-72
2023/01/28 09:05:21;;;;;;;17.42;10.40;;;;;;;;;;4845058;29;20068;-74
2023/01/28 09:07:48;;;;;;;;;;;;;;;;;;4855658;29;20037;-73
2023/01/28 09:10:15;;;;;;;16.85;6.32;;;;;;;;;;4853411;29;19915;-73
2023/01/28 09:12:41;;;;;;;13.25;5.13;;;;;;;;;;4832969;29;20423;-72
2023/01/28 09:15:23;;;;;;;12.43;5.80;;;;;;;;;;5046802;27;20481;-74
2023/01/28 09:17:49;;;;;;;16.50;7.32;;;;;;;;;;5023952;28;20418;-72
2023/01/28 09:20:15;;;;;;;15.48;8.65;;;;;;;;;;5043136;28;20170;-75
2023/01/28 09:22:41;;;;;;;17.00;8.98;;;;;;;;;;5037549;28;22009;-73
2023/01/28 09:25:08;;;;;;;14.80;8.00;;;;;;;;;;5025231;28;20439;-74
2023/01/28 09:27:34;;;;;;;13.38;6.50;;;;;;;;;;5021646;28;20523;-73
2023/01/28 09:30:00;;;;;;;11.98;4.88;;;;;;;;;;5021248;28;20025;-72
2023/01/28 09:32:26;;;;;;;14.43;5.95;;;;;;;;;;5020493;28;20036;-74
2023/01/28 09:34:52;;;;;;;11.88;5.22;;;;;;;;;;5038979;28;20026;-74
2023/01/28 09:37:18;;;;;;;16.10;8.20;;;;;;;;;;5027837;28;20032;-74
2023/01/28 09:39:45;;;;;;;14.18;6.43;;;;;;;;;;5037810;28;20052;-72
2023/01/28 09:42:11;;;;;;;;;;;;;;;;;;5037373;28;20133;-72
2023/01/28 09:44:56;;;;;;;15.52;9.63;;;;;;;;;;5026220;28;19924;-74
2023/01/28 09:47:26;;;;;;;13.32;6.70;;;;;;;;;;5024182;28;20433;-72
2023/01/28 09:49:55;;;;;;;13.07;5.85;;;;;;;;;;5027426;28;20025;-72
2023/01/28 09:52:23;;;;;;;13.93;4.93;;;;;;;;;;5024922;28;20033;-73
2023/01/28 09:54:50;;;;;;;12.57;5.05;;;;;;;;;;5026118;28;20120;-75
2023/01/28 09:57:21;;;;;;;14.10;5.68;;;;;;;;;;5024441;28;20508;-74
2023/01/28 09:59:48;;;;;;;13.05;5.82;;;;;;;;;;5022694;28;20492;-71
2023/01/28 10:02:24;;;;;;;15.38;6.82;;;;;;;;;;5025526;28;20029;-74
2023/01/28 10:05:15;;;;;;;19.38;8.32;;;;;;;;;;5029623;28;20372;-74
2023/01/28 10:08:04;;;;;;;18.92;8.02;;;;;;;;;;5020901;28;21429;-74
2023/01/28 10:10:39;;;;;;;16.00;5.88;;;;;;;;;;5038180;28;20041;-75
2023/01/28 10:13:05;;;;;;;14.98;6.32;;;;;;;;;;5028244;28;20470;-73
2023/01/28 10:15:50;;;;;;;14.27;6.22;;;;;;;;;;5024660;28;20036;-72
2023/01/28 10:18:20;;;;;;;18.58;7.30;;;;;;;;;;5027850;28;20376;-74
2023/01/28 10:21:02;;;;;;;17.45;6.20;;;;;;;;;;5022156;28;20502;-74
2023/01/28 10:23:36;;;;;;;11.75;5.03;;;;;;;;;;5041138;28;20567;-75
2023/01/28 10:26:04;;;;;;;15.93;5.03;;;;;;;;;;5018582;28;20119;-75
2023/01/28 10:28:31;;;;;;;14.98;4.85;;;;;;;;;;5008870;28;20049;-72
2023/01/28 10:30:57;;;;;;;16.25;5.60;;;;;;;;;;5008609;28;20025;-73
2023/01/28 10:33:38;;;;;;;17.98;5.80;;;;;;;;;;5005533;28;20032;-74
2023/01/28 10:36:06;;;;;;;17.35;5.75;;;;;;;;;;5006057;28;20037;-73
2023/01/28 10:38:32;;;;;;;18.05;6.22;;;;;;;;;;4999683;28;20017;-72
2023/01/28 10:41:01;;;;;;;14.98;4.75;;;;;;;;;;5012070;28;20036;-74
2023/01/28 10:43:30;;;;;;;12.65;4.63;;;;;;;;;;5011482;28;20039;-74
2023/01/28 10:45:56;;;;;;;17.15;5.57;;;;;;;;;;5025469;28;20300;-77
2023/01/28 10:48:24;;;;;;;15.52;5.18;;;;;;;;;;5006295;28;20241;-74
2023/01/28 10:50:52;;;;;;;16.25;5.32;;;;;;;;;;5008778;28;20460;-72
2023/01/28 10:53:18;;;;;;;14.27;5.18;;;;;;;;;;5011379;28;20651;-75
2023/01/28 10:55:53;;;;;;;15.27;4.88;;;;;;;;;;5009944;28;20037;-74
2023/01/28 10:58:21;;;;;;;13.30;4.63;;;;;;;;;;5012552;28;20037;-73
2023/01/28 11:00:52;;;;;;;16.73;4.82;;;;;;;;;;5009855;28;20024;-74
2023/01/28 11:03:18;;;;;;;15.15;4.60;;;;;;;;;;5015260;28;20052;-74
2023/01/28 11:05:44;;;;;;;;;;;;;;;;;;5011885;28;20110;-73
2023/01/28 11:08:15;;;;;;;11.48;4.22;;;;;;;;;;5009574;28;20317;-73
2023/01/28 11:10:42;;;;;;;14.90;5.00;;;;;;;;;;5013057;28;20037;-74
2023/01/28 11:13:08;;;;;;;;;;;;;;;;;;5014983;28;20451;-73
2023/01/28 11:15:34;;;;;;;15.43;6.80;;;;;;;;;;5011103;28;19927;-75
2023/01/28 11:18:06;;;;;;;13.77;6.97;;;;;;;;;;5030252;28;20033;-73
2023/01/28 11:20:44;;;;;;;17.20;7.78;;;;;;;;;;5012182;28;20519;-74
2023/01/28 11:23:21;;;;;;;12.50;5.35;;;;;;;;;;5013444;28;20148;-73
2023/01/28 11:25:48;;;;;;;12.55;4.90;;;;;;;;;;5010718;28;20024;-72
2023/01/28 11:28:19;;;;;;;15.10;6.38;;;;;;;;;;5013456;28;20510;-73
2023/01/28 11:30:50;;;;;;;13.05;5.40;;;;;;;;;;5009647;28;20383;-73
2023/01/28 11:33:42;;;;;;;10.80;4.40;;;;;;;;;;5012408;28;20040;-72
2023/01/28 11:36:16;;;;;;;10.40;4.10;;;;;;;;;;5012927;28;20091;-72
2023/01/28 11:38:59;;;;;;;12.25;4.50;;;;;;;;;;5009202;28;20167;-72
2023/01/28 11:41:29;;;;;;;12.10;4.72;;;;;;;;;;5010830;28;20052;-74
2023/01/28 11:43:57;;;;;;;11.82;4.53;;;;;;;;;;5010581;28;20037;-74
2023/01/28 11:46:38;;;;;;;9.23;3.65;;;;;;;;;;5023656;28;20331;-76
2023/01/28 11:49:26;;;;;;;10.55;3.65;;;;;;;;;;5015661;28;20085;-74
2023/01/28 11:52:22;;;;;;;11.65;3.83;;;;;;;;;;5010904;28;20086;-73
2023/01/28 11:54:57;;;;;;;12.25;4.43;;;;;;;;;;5020461;28;20101;-73
2023/01/28 11:57:33;;;;;;;10.60;4.72;;;;;;;;;;5004191;28;20306;-73
2023/01/28 12:00:08;;;;;;;12.18;5.10;;;;;;;;;;5025233;28;20063;-74
2023/01/28 12:02:43;;;;;;;11.45;4.55;;;;;;;;;;5017853;28;20140;-73
2023/01/28 12:05:19;;;;;;;11.05;4.15;;;;;;;;;;5020843;28;20290;-73
2023/01/28 12:07:49;;;;;;;11.20;4.20;;;;;;;;;;5007133;28;20025;-73
2023/01/28 12:10:18;;;;;;;14.82;4.15;;;;;;;;;;5013457;28;20618;-73
2023/01/28 12:12:52;;;;;;;11.70;3.95;;;;;;;;;;5018167;28;21469;-74
2023/01/28 12:15:18;;;;;;;14.57;4.45;;;;;;;;;;5021371;28;20063;-74
2023/01/28 12:17:44;;;;;;;13.07;5.03;;;;;;;;;;5018427;28;20060;-72
2023/01/28 12:20:18;;;;;;;13.25;5.90;;;;;;;;;;5019101;28;20041;-74
2023/01/28 12:22:53;;;;;;;12.32;4.65;;;;;;;;;;5017234;28;20866;-74
2023/01/28 12:25:35;;;;;;;12.75;4.40;;;;;;;;;;5011857;28;21075;-73
2023/01/28 12:28:19;;;;;;;11.77;4.03;;;;;;;;;;5004212;28;20128;-73
2023/01/28 12:31:01;;;;;;;12.27;4.55;;;;;;;;;;5006253;28;20036;-74
2023/01/28 12:33:30;;;;;;;12.18;3.35;;;;;;;;;;5010104;28;20548;-72
2023/01/28 12:36:05;;;;;;;10.77;3.63;;;;;;;;;;5009668;28;20488;-73
2023/01/28 12:38:38;;;;;;;11.75;3.75;;;;;;;;;;5005736;28;20332;-74
2023/01/28 12:41:07;;;;;;;11.82;4.32;;;;;;;;;;5007489;28;20017;-73
2023/01/28 12:43:36;;;;;;;11.52;4.38;;;;;;;;;;5003427;28;20578;-73
2023/01/28 12:46:04;;;;;;;11.63;4.03;;;;;;;;;;5008704;28;20201;-75
2023/01/28 12:48:42;;;;;;;13.20;4.20;;;;;;;;;;5008296;28;20033;-73
2023/01/28 12:51:08;;;;;;;9.93;3.65;;;;;;;;;;5012609;28;20447;-75
2023/01/28 12:53:38;;;;;;;16.10;8.85;;;;;;;;;;5007334;28;20028;-74
2023/01/28 12:56:10;;;;;;;13.10;5.82;;;;;;;;;;5007305;28;20532;-74
2023/01/28 12:58:48;;;;;;;12.20;5.43;;;;;;;;;;5011977;28;20436;-73
2023/01/28 13:01:18;;;;;;;13.00;4.25;;;;;;;;;;5016427;28;20291;-74
2023/01/28 13:03:47;;;;;;;10.90;4.40;;;;;;;;;;5009092;28;20522;-74
2023/01/28 13:06:16;;;;;;;11.65;4.03;;;;;;;;;;5012897;28;20037;-74
2023/01/28 13:08:43;;;;;;;10.90;4.97;;;;;;;;;;5013134;28;20051;-73
2023/01/28 13:11:15;;;;;;;11.93;5.30;;;;;;;;;;5015276;28;20040;-73
2023/01/28 13:13:42;;;;;;;12.98;5.18;;;;;;;;;;5022713;28;20045;-74
2023/01/28 13:16:09;;;;;;;12.90;5.38;;;;;;;;;;5016805;28;20029;-74
2023/01/28 13:18:42;;;;;;;11.73;5.05;;;;;;;;;;5010259;28;20550;-74
2023/01/28 13:21:24;;;;;;;12.18;4.78;;;;;;;;;;5014632;28;20496;-75
2023/01/28 13:23:51;;;;;;;12.32;4.65;;;;;;;;;;5014318;28;20403;-72
2023/01/28 13:26:20;;;;;;;13.18;4.80;;;;;;;;;;5030831;28;20101;-72
2023/01/28 13:28:47;;;;;;;14.63;6.13;;;;;;;;;;5010781;28;20037;-73
2023/01/28 13:31:18;;;;;;;13.55;6.10;;;;;;;;;;5014225;28;20036;-73
2023/01/28 13:34:04;;;;;;;13.43;5.65;;;;;;;;;;5009735;28;20036;-73
2023/01/28 13:36:44;;;;;;;13.82;6.65;;;;;;;;;;5011740;28;20033;-74
2023/01/28 13:39:13;;;;;;;12.30;5.25;;;;;;;;;;5017348;28;20463;-75
2023/01/28 13:41:44;;;;;;;12.32;5.13;;;;;;;;;;5009598;28;20376;-75
2023/01/28 13:44:25;;;;;;;12.70;5.57;;;;;;;;;;5009202;28;20055;-73
2023/01/28 13:46:59;;;;;;;12.88;5.38;;;;;;;;;;5025541;28;20037;-75
2023/01/28 13:49:29;;;;;;;11.20;5.30;;;;;;;;;;5012413;28;20544;-72
2023/01/28 13:52:07;;;;;;;12.55;5.97;;;;;;;;;;5015443;28;20060;-73
2023/01/28 13:54:35;;;;;;;15.90;9.18;;;;;;;;;;5007539;28;20724;-74
2023/01/28 13:57:02;;;;;;;15.90;8.13;;;;;;;;;;5011200;28;20055;-73
2023/01/28 13:59:39;;;;;;;14.82;8.02;;;;;;;;;;5004972;28;20551;-73
2023/01/28 14:02:17;;;;;;;14.18;7.80;;;;;;;;;;5008151;28;20471;-73
2023/01/28 14:04:59;;;;;;;13.30;7.15;;;;;;;;;;5008109;28;20033;-74
2023/01/28 14:07:48;;;;;;;14.95;6.78;;;;;;;;;;5017231;28;20060;-74
2023/01/28 14:10:26;;;;;;;13.73;6.32;;;;;;;;;;5024305;28;20121;-75
2023/01/28 14:12:55;;;;;;;16.15;9.50;;;;;;;;;;5041888;28;20044;-74
2023/01/28 14:15:40;;;;;;;15.52;9.20;;;;;;;;;;5024779;28;20441;-73
2023/01/28 14:18:36;;;;;;;14.23;8.55;;;;;;;;;;5042550;28;20028;-74
2023/01/28 14:21:04;;;;;;;15.40;8.52;;;;;;;;;;5021921;28;20028;-73
2023/01/28 14:23:31;;;;;;;17.48;10.10;;;;;;;;;;5022306;28;20146;-74
2023/01/28 14:26:16;;;;;;;18.77;12.05;;;;;;;;;;5043008;28;20443;-73
2023/01/28 14:28:54;;;;;;;16.65;9.23;;;;;;;;;;5023410;28;20047;-73
2023/01/28 14:31:21;;;;;;;16.90;9.75;;;;;;;;;;5025261;28;20106;-73
2023/01/28 14:33:47;;;;;;;18.98;10.70;;;;;;;;;;5023424;28;20067;-74
2023/01/28 14:36:13;;;;;;;21.77;14.07;;;;;;;;;;5042346;28;20032;-73
2023/01/28 14:38:41;;;;;;;22.88;12.82;;;;;;;;;;5020628;28;20048;-73
2023/01/28 14:41:08;;;;;;;39.78;27.23;;;;;;;;;;5041816;28;20045;-73
2023/01/28 14:43:36;;;;;;;35.30;22.77;;;;;;;;;;5032621;28;20040;-74
2023/01/28 14:46:09;;;;;;;23.80;14.10;;;;;;;;;;5023300;28;20038;-74
2023/01/28 14:48:48;;;;;;;28.15;18.08;;;;;;;;;;5016435;28;20580;-74
2023/01/28 14:51:33;;;;;;;20.45;11.05;;;;;;;;;;5016785;28;20172;-74
2023/01/28 14:54:14;;;;;;;22.77;12.05;;;;;;;;;;5018276;28;20044;-73
2023/01/28 14:56:54;;;;;;;22.05;12.73;;;;;;;;;;5017264;28;20486;-75
2023/01/28 14:59:22;;;;;;;64.40;44.33;;;;;;;;;;5016847;28;20067;-74
2023/01/28 15:01:54;;;;;;;84.93;65.88;;;;;;;;;;5016722;28;20166;-74
2023/01/28 15:04:31;;;;;;;35.20;25.02;;;;;;;;;;5018323;28;20032;-75
2023/01/28 15:07:01;;;;;;;48.03;37.83;;;;;;;;;;5017764;28;20037;-75
2023/01/28 15:09:27;;;;;;;30.67;22.75;;;;;;;;;;5017738;28;20110;-72
2023/01/28 15:11:56;;;;;;;27.02;16.80;;;;;;;;;;5019218;28;20060;-72
2023/01/28 15:14:30;;;;;;;21.85;12.05;;;;;;;;;;5020085;28;20049;-73
2023/01/28 15:16:56;;;;;;;25.40;14.35;;;;;;;;;;5032790;28;20036;-75
2023/01/28 15:19:42;;;;;;;22.80;12.80;;;;;;;;;;5018355;28;20050;-75
2023/01/28 15:22:13;;;;;;;20.75;11.95;;;;;;;;;;5017881;28;20356;-73
2023/01/28 15:24:42;;;;;;;24.48;14.63;;;;;;;;;;5017700;28;20461;-72